createdAt,value
2023-03-13T00:01:55.677Z,97418.72
2023-03-13T00:04:27.037Z,97420.65
2023-03-13T00:07:58.127Z,97408.20
2023-03-13T00:11:34.846Z,97406.41
2023-03-13T00:14:05.999Z,97409.78
2023-03-13T00:16:35.831Z,97406.48
2023-03-13T00:19:05.770Z,97401.83
2023-03-13T00:21:34.258Z,97394.95
2023-03-13T00:24:02.233Z,97394.59
2023-03-13T00:26:30.763Z,97394.48
2023-03-13T00:28:59.406Z,97390.91
2023-03-13T00:31:31.723Z,97390.85
2023-03-13T00:34:02.217Z,97392.08
2023-03-13T00:36:33.503Z,97386.58
2023-03-13T00:39:05.803Z,97383.07
2023-03-13T00:41:37.326Z,97375.65
2023-03-13T00:44:06.511Z,97368.61
2023-03-13T00:46:36.064Z,97364.18
2023-03-13T00:49:05.004Z,97368.92
2023-03-13T00:51:34.901Z,97373.88
2023-03-13T00:54:04.097Z,97374.31
2023-03-13T00:56:32.125Z,97362.52
2023-03-13T00:59:01.566Z,97359.20
2023-03-13T01:01:32.627Z,97349.43
2023-03-13T01:04:04.919Z,97343.36
2023-03-13T01:09:39.592Z,97334.52
2023-03-13T01:12:12.999Z,97346.40
2023-03-13T01:14:42.801Z,97350.04
2023-03-13T01:17:10.771Z,97353.87
2023-03-13T01:19:45.459Z,97356.42
2023-03-13T01:22:19.145Z,97350.17
2023-03-13T01:27:30.179Z,97349.80
2023-03-13T01:30:06.706Z,97346.20
2023-03-13T01:32:41.249Z,97343.34
2023-03-13T01:35:19.725Z,97340.73
2023-03-13T01:38:06.300Z,97342.26
2023-03-13T01:41:22.325Z,97340.00
2023-03-13T01:43:56.930Z,97354.45
2023-03-13T01:46:33.627Z,97359.38
2023-03-13T01:49:13.497Z,97357.82
2023-03-13T01:52:32.399Z,97359.37
2023-03-13T01:55:25.423Z,97358.39
2023-03-13T01:58:02.246Z,97361.20
2023-03-13T02:00:38.218Z,97358.67
2023-03-13T02:03:19.618Z,97361.73
2023-03-13T02:05:50.517Z,97355.95
2023-03-13T02:08:25.745Z,97365.81
2023-03-13T02:11:01.870Z,97369.33
2023-03-13T02:13:29.990Z,97367.43
2023-03-13T02:15:58.090Z,97364.59
2023-03-13T02:18:26.703Z,97362.26
2023-03-13T02:21:06.365Z,97364.55
2023-03-13T02:23:51.744Z,97365.73
2023-03-13T02:26:25.716Z,97375.74
2023-03-13T02:30:54.586Z,97370.96
2023-03-13T02:35:23.503Z,97375.55
2023-03-13T02:39:12.298Z,97388.21
2023-03-13T02:41:48.420Z,97393.80
2023-03-13T02:44:25.312Z,97392.64
2023-03-13T02:46:59.073Z,97398.41
2023-03-13T02:49:30.217Z,97396.02
2023-03-13T02:52:31.139Z,97397.67
2023-03-13T02:55:10.353Z,97397.17
2023-03-13T02:57:44.496Z,97393.52
2023-03-13T03:00:19.026Z,97400.43
2023-03-13T03:02:48.219Z,97395.67
2023-03-13T03:05:16.350Z,97397.56
2023-03-13T03:07:44.317Z,97394.06
2023-03-13T03:10:13.137Z,97397.46
2023-03-13T03:12:42.006Z,97398.02
2023-03-13T03:15:10.977Z,97400.41
2023-03-13T03:17:39.731Z,97406.88
2023-03-13T03:20:11.992Z,97407.30
2023-03-13T03:22:42.561Z,97408.17
2023-03-13T03:25:10.722Z,97405.83
2023-03-13T03:27:38.705Z,97406.40
2023-03-13T03:30:09.112Z,97406.23
2023-03-13T03:32:38.024Z,97402.44
2023-03-13T03:35:07.110Z,97405.02
2023-03-13T03:37:35.150Z,97402.45
2023-03-13T03:40:05.858Z,97400.86
2023-03-13T03:42:34.464Z,97404.86
2023-03-13T03:47:03.435Z,97399.02
2023-03-13T03:49:35.159Z,97397.98
2023-03-13T03:52:03.562Z,97401.16
2023-03-13T03:54:35.504Z,97400.48
2023-03-13T03:57:04.414Z,97407.33
2023-03-13T03:59:35.476Z,97402.53
2023-03-13T04:02:07.229Z,97408.34
2023-03-13T04:04:36.017Z,97404.06
2023-03-13T04:07:11.469Z,97400.75
2023-03-13T04:10:55.721Z,97403.15
2023-03-13T04:13:25.192Z,97400.81
2023-03-13T04:15:53.728Z,97404.36
2023-03-13T04:18:21.878Z,97402.91
2023-03-13T04:20:50.020Z,97404.92
2023-03-13T04:23:18.061Z,97402.73
2023-03-13T04:25:46.144Z,97401.27
2023-03-13T04:28:15.296Z,97402.63
2023-03-13T04:30:45.450Z,97405.35
2023-03-13T04:33:34.396Z,97403.02
2023-03-13T04:36:40.586Z,97404.39
2023-03-13T04:39:33.067Z,97408.27
2023-03-13T04:42:19.746Z,97401.17
2023-03-13T04:45:12.226Z,97402.14
2023-03-13T04:47:48.007Z,97404.69
2023-03-13T04:50:38.956Z,97404.52
2023-03-13T04:53:15.967Z,97399.41
2023-03-13T04:55:52.075Z,97397.52
2023-03-13T04:58:40.422Z,97398.99
2023-03-13T05:01:17.750Z,97395.29
2023-03-13T05:04:12.771Z,97394.48
2023-03-13T05:06:59.616Z,97389.80
2023-03-13T05:09:42.034Z,97385.54
2023-03-13T05:12:19.869Z,97383.45
2023-03-13T05:15:17.319Z,97382.67
2023-03-13T05:18:14.313Z,97377.48
2023-03-13T05:20:59.381Z,97380.81
2023-03-13T05:23:53.637Z,97377.70
2023-03-13T05:26:47.607Z,97381.00
2023-03-13T05:29:47.584Z,97379.17
2023-03-13T05:32:32.868Z,97377.62
2023-03-13T05:35:00.832Z,97373.62
2023-03-13T05:37:40.808Z,97373.61
2023-03-13T05:40:34.108Z,97374.81
2023-03-13T05:43:40.198Z,97370.27
2023-03-13T05:46:28.423Z,97371.48
2023-03-13T05:49:06.609Z,97378.94
2023-03-13T05:52:02.454Z,97378.00
2023-03-13T05:54:45.455Z,97375.71
2023-03-13T05:57:26.587Z,97379.09
2023-03-13T06:00:04.846Z,97374.15
2023-03-13T06:02:43.685Z,97374.80
2023-03-13T06:05:15.974Z,97370.40
2023-03-13T06:07:43.968Z,97370.58
2023-03-13T06:10:12.404Z,97378.12
2023-03-13T06:12:40.375Z,97376.99
2023-03-13T06:15:12.292Z,97373.07
2023-03-13T06:18:03.253Z,97366.55
2023-03-13T06:20:31.185Z,97360.63
2023-03-13T06:22:59.227Z,97353.83
2023-03-13T06:25:27.226Z,97353.62
2023-03-13T06:27:55.429Z,97355.10
2023-03-13T06:30:23.314Z,97359.13
2023-03-13T06:32:51.304Z,97354.25
2023-03-13T06:35:19.474Z,97356.56
2023-03-13T06:37:47.366Z,97356.27
2023-03-13T06:40:15.511Z,97355.10
2023-03-13T06:42:43.558Z,97351.82
2023-03-13T06:45:11.734Z,97352.73
2023-03-13T06:47:39.641Z,97349.56
2023-03-13T06:50:08.358Z,97349.16
2023-03-13T06:52:43.877Z,97345.39
2023-03-13T06:55:13.682Z,97345.31
2023-03-13T06:57:41.940Z,97345.02
2023-03-13T07:00:11.641Z,97347.73
2023-03-13T07:02:39.726Z,97347.52
2023-03-13T07:05:08.543Z,97343.22
2023-03-13T07:07:36.562Z,97345.55
2023-03-13T07:10:33.200Z,97340.56
2023-03-13T07:13:01.134Z,97341.07
2023-03-13T07:15:29.023Z,97342.45
2023-03-13T07:17:58.673Z,97336.75
2023-03-13T07:20:26.706Z,97334.15
2023-03-13T07:22:54.751Z,97333.02
2023-03-13T07:25:22.675Z,97336.86
2023-03-13T07:27:52.648Z,97336.29
2023-03-13T07:30:20.649Z,97329.27
2023-03-13T07:32:48.731Z,97324.79
2023-03-13T07:35:16.780Z,97322.04
2023-03-13T07:37:44.851Z,97325.70
2023-03-13T07:40:13.628Z,97327.48
2023-03-13T07:42:42.449Z,97327.28
2023-03-13T07:45:10.909Z,97322.62
2023-03-13T07:47:38.852Z,97315.20
2023-03-13T07:50:07.222Z,97310.75
2023-03-13T07:52:35.880Z,97308.85
2023-03-13T07:55:03.941Z,97308.98
2023-03-13T07:57:31.898Z,97312.02
2023-03-13T07:59:59.851Z,97315.82
2023-03-13T08:02:28.135Z,97309.05
2023-03-13T08:04:58.768Z,97305.30
2023-03-13T08:07:26.827Z,97302.39
2023-03-13T08:09:55.141Z,97301.04
2023-03-13T08:12:23.159Z,97302.38
2023-03-13T08:14:51.423Z,97294.50
2023-03-13T08:17:19.445Z,97294.99
2023-03-13T08:19:47.362Z,97292.22
2023-03-13T08:22:15.784Z,97292.81
2023-03-13T08:24:43.943Z,97289.20
2023-03-13T08:27:11.938Z,97293.61
2023-03-13T08:29:40.156Z,97291.67
2023-03-13T08:32:08.324Z,97285.71
2023-03-13T08:34:37.074Z,97281.99
2023-03-13T08:37:05.013Z,97281.76
2023-03-13T08:39:33.029Z,97281.08
2023-03-13T08:42:00.966Z,97277.34
2023-03-13T08:44:29.411Z,97277.21
2023-03-13T08:47:00.033Z,97270.48
2023-03-13T08:49:28.291Z,97272.80
2023-03-13T08:51:56.830Z,97262.31
2023-03-13T08:54:25.109Z,97267.13
2023-03-13T08:56:53.123Z,97259.67
2023-03-13T08:59:21.096Z,97260.62
2023-03-13T09:01:49.692Z,97260.23
2023-03-13T09:04:18.405Z,97261.64
2023-03-13T09:06:46.369Z,97257.77
2023-03-13T09:09:14.621Z,97264.70
2023-03-13T09:11:42.836Z,97258.63
2023-03-13T09:14:11.188Z,97253.64
2023-03-13T09:16:39.228Z,97258.95
2023-03-13T09:19:07.374Z,97255.45
2023-03-13T09:21:35.945Z,97257.96
2023-03-13T09:24:04.427Z,97267.97
2023-03-13T09:26:32.918Z,97268.48
2023-03-13T09:29:00.884Z,97258.18
2023-03-13T09:31:34.247Z,97264.83
2023-03-13T09:34:02.944Z,97255.98
2023-03-13T09:43:24.453Z,97248.34
2023-03-13T09:48:57.392Z,97244.80
2023-03-13T09:51:27.980Z,97245.38
2023-03-13T09:54:20.653Z,97246.25
2023-03-13T09:56:56.594Z,97233.80
2023-03-13T09:59:24.806Z,97232.27
2023-03-13T10:01:55.470Z,97233.35
2023-03-13T10:04:32.969Z,97234.56
2023-03-13T10:07:03.831Z,97228.45
2023-03-13T10:09:41.508Z,97228.02
2023-03-13T10:12:21.868Z,97233.80
2023-03-13T10:15:17.688Z,97223.02
2023-03-13T10:17:45.973Z,97220.83
2023-03-13T10:20:26.375Z,97208.56
2023-03-13T10:23:03.547Z,97209.25
2023-03-13T10:25:39.599Z,97199.86
2023-03-13T10:28:26.284Z,97191.55
2023-03-13T10:31:07.019Z,97184.15
2023-03-13T10:33:37.680Z,97187.30
2023-03-13T10:36:09.343Z,97185.98
2023-03-13T10:38:52.510Z,97189.94
2023-03-13T10:41:28.489Z,97190.73
2023-03-13T10:44:03.539Z,97188.96
2023-03-13T10:46:34.837Z,97189.70
2023-03-13T10:49:05.222Z,97190.98
2023-03-13T10:51:39.110Z,97181.91
2023-03-13T10:54:23.782Z,97171.95
2023-03-13T10:56:56.768Z,97165.87
2023-03-13T10:59:27.497Z,97161.93
2023-03-13T11:02:00.874Z,97160.95
2023-03-13T11:04:39.310Z,97167.09
2023-03-13T11:07:17.362Z,97160.19
2023-03-13T11:09:59.400Z,97154.67
2023-03-13T11:12:28.008Z,97142.19
2023-03-13T11:15:11.719Z,97147.89
2023-03-13T11:17:41.985Z,97136.13
2023-03-13T11:20:23.248Z,97135.55
2023-03-13T11:23:25.118Z,97127.05
2023-03-13T11:26:09.516Z,97125.02
2023-03-13T11:28:53.305Z,97120.88
2023-03-13T11:31:46.269Z,97113.54
2023-03-13T11:34:26.675Z,97117.64
2023-03-13T11:37:02.481Z,97119.13
2023-03-13T11:40:21.634Z,97115.48
2023-03-13T11:43:24.565Z,97111.45
2023-03-13T11:45:59.758Z,97102.67
2023-03-13T11:48:30.622Z,97092.56
2023-03-13T11:51:20.511Z,97077.92
2023-03-13T11:54:07.043Z,97071.69
2023-03-13T11:56:58.532Z,97065.30
2023-03-13T11:59:48.425Z,97059.77
2023-03-13T12:02:35.540Z,97052.95
2023-03-13T12:05:09.577Z,97050.46
2023-03-13T12:07:42.971Z,97033.78
2023-03-13T12:10:23.923Z,97027.46
2023-03-13T12:12:57.024Z,97031.52
2023-03-13T12:15:29.654Z,97038.42
2023-03-13T12:18:06.150Z,97042.56
2023-03-13T12:20:41.400Z,97035.98
2023-03-13T12:23:20.666Z,97029.92
2023-03-13T12:25:55.357Z,97028.74
2023-03-13T12:28:49.443Z,97028.36
2023-03-13T12:31:26.945Z,97014.41
2023-03-13T12:33:57.611Z,97005.39
2023-03-13T12:36:40.435Z,97001.20
2023-03-13T12:39:33.495Z,97001.77
2023-03-13T12:42:33.291Z,96997.06
2023-03-13T12:45:01.736Z,96995.02
2023-03-13T12:47:40.139Z,97001.46
2023-03-13T12:50:24.606Z,97000.29
2023-03-13T12:53:06.618Z,96996.59
2023-03-13T12:55:59.288Z,96993.58
2023-03-13T12:58:41.814Z,96989.33
2023-03-13T13:01:17.639Z,96989.19
2023-03-13T13:03:52.599Z,96994.45
2023-03-13T13:06:21.129Z,96991.75
2023-03-13T13:08:55.016Z,96995.90
2023-03-13T13:11:47.606Z,97000.25
2023-03-13T13:14:15.961Z,96997.96
2023-03-13T13:16:50.885Z,96998.00
2023-03-13T13:19:25.311Z,96996.81
2023-03-13T13:22:31.172Z,96997.42
2023-03-13T13:25:01.182Z,96996.85
2023-03-13T13:27:46.994Z,96993.62
2023-03-13T13:30:17.834Z,96996.81
2023-03-13T13:32:48.290Z,96992.15
2023-03-13T13:35:32.814Z,96997.38
2023-03-13T13:38:18.919Z,96996.39
2023-03-13T13:41:10.069Z,96985.69
2023-03-13T13:43:40.559Z,96979.75
2023-03-13T13:46:10.835Z,96975.30
2023-03-13T13:48:43.182Z,96974.22
2023-03-13T13:51:11.361Z,96974.20
2023-03-13T13:53:56.126Z,96970.79
2023-03-13T13:56:39.411Z,96976.32
2023-03-13T13:59:25.887Z,96968.91
2023-03-13T14:02:10.352Z,96966.22
2023-03-13T14:04:44.795Z,96959.52
2023-03-13T14:07:18.830Z,96959.79
2023-03-13T14:10:02.408Z,96953.87
2023-03-13T14:12:38.420Z,96947.55
2023-03-13T14:15:06.628Z,96950.02
2023-03-13T14:17:47.736Z,96950.46
2023-03-13T14:20:31.517Z,96953.65
2023-03-13T14:23:11.808Z,96945.64
2023-03-13T14:25:50.758Z,96948.73
2023-03-13T14:28:23.444Z,96940.92
2023-03-13T14:30:54.489Z,96942.01
2023-03-13T14:33:22.834Z,96939.45
2023-03-13T14:35:50.963Z,96947.23
2023-03-13T14:38:27.341Z,96942.52
2023-03-13T14:40:55.883Z,96938.48
2023-03-13T14:43:40.573Z,96939.73
2023-03-13T14:46:32.346Z,96939.97
2023-03-13T14:49:15.443Z,96943.05
2023-03-13T14:51:43.715Z,96942.93
2023-03-13T14:54:52.683Z,96949.69
2023-03-13T14:57:24.453Z,96945.54
2023-03-13T15:00:42.930Z,96946.82
2023-03-13T15:03:17.117Z,96940.02
2023-03-13T15:05:50.394Z,96940.09
2023-03-13T15:08:22.883Z,96938.20
2023-03-13T15:10:51.224Z,96937.29
2023-03-13T15:13:29.476Z,96937.43
2023-03-13T15:15:58.311Z,96928.98
2023-03-13T15:18:27.995Z,96923.48
2023-03-13T15:21:19.744Z,96916.65
2023-03-13T15:23:53.845Z,96916.42
2023-03-13T15:26:22.447Z,96914.30
2023-03-13T15:28:51.227Z,96909.71
2023-03-13T15:31:21.120Z,96916.48
2023-03-13T15:33:54.799Z,96911.38
2023-03-13T15:36:22.701Z,96904.63
2023-03-13T15:38:51.947Z,96900.63
2023-03-13T15:41:21.756Z,96898.41
2023-03-13T15:43:52.989Z,96910.23
2023-03-13T15:46:21.405Z,96900.63
2023-03-13T15:48:51.460Z,96903.73
2023-03-13T15:51:20.987Z,96905.27
2023-03-13T15:53:50.315Z,96898.91
2023-03-13T15:56:22.806Z,96897.38
2023-03-13T15:58:51.282Z,96904.96
2023-03-13T16:01:19.859Z,96905.58
2023-03-13T16:03:47.864Z,96907.71
2023-03-13T16:06:21.787Z,96899.11
2023-03-13T16:08:49.685Z,96901.92
2023-03-13T16:11:17.731Z,96898.15
2023-03-13T16:13:45.887Z,96902.61
2023-03-13T16:16:22.856Z,96912.58
2023-03-13T16:18:52.502Z,96913.88
2023-03-13T16:21:23.516Z,96912.71
2023-03-13T16:23:51.867Z,96914.87
2023-03-13T16:26:26.248Z,96911.21
2023-03-13T16:28:55.167Z,96911.68
2023-03-13T16:31:31.602Z,96909.81
2023-03-13T16:34:01.158Z,96903.98
2023-03-13T16:36:31.994Z,96903.84
2023-03-13T16:39:02.560Z,96904.20
2023-03-13T16:41:30.608Z,96900.77
2023-03-13T16:43:58.691Z,96895.58
2023-03-13T16:46:41.072Z,96895.80
2023-03-13T16:49:14.029Z,96895.90
2023-03-13T16:51:42.134Z,96891.38
2023-03-13T16:54:12.165Z,96890.81
2023-03-13T16:56:43.403Z,96890.71
2023-03-13T16:59:14.075Z,96890.88
2023-03-13T17:01:42.711Z,96884.58
2023-03-13T17:04:10.663Z,96870.71
2023-03-13T17:06:41.521Z,96871.06
2023-03-13T17:09:16.064Z,96867.66
2023-03-13T17:11:44.588Z,96861.23
2023-03-13T17:14:13.729Z,96865.40
2023-03-13T17:16:44.034Z,96858.00
2023-03-13T17:19:17.346Z,96856.48
2023-03-13T17:21:45.270Z,96855.40
2023-03-13T17:24:13.278Z,96855.11
2023-03-13T17:26:41.617Z,96852.75
2023-03-13T17:29:16.013Z,96852.88
2023-03-13T17:31:43.892Z,96852.72
2023-03-13T17:34:13.091Z,96850.46
2023-03-13T17:36:41.613Z,96845.54
2023-03-13T17:39:14.778Z,96840.85
2023-03-13T17:41:43.200Z,96838.86
2023-03-13T17:44:11.116Z,96839.09
2023-03-13T17:46:43.177Z,96837.86
2023-03-13T17:49:13.172Z,96837.41
2023-03-13T17:51:41.680Z,96841.80
2023-03-13T17:54:10.172Z,96837.38
2023-03-13T17:56:40.359Z,96831.95
2023-03-13T17:59:18.550Z,96827.72
2023-03-13T18:01:46.665Z,96813.56
2023-03-13T18:04:15.758Z,96809.52
2023-03-13T18:06:46.994Z,96802.59
2023-03-13T18:09:21.742Z,96798.50
2023-03-13T18:11:51.121Z,96791.55
2023-03-13T18:14:19.593Z,96784.51
2023-03-13T18:16:50.446Z,96784.77
2023-03-13T18:19:22.675Z,96782.20
2023-03-13T18:21:54.069Z,96778.95
2023-03-13T18:24:22.718Z,96780.66
2023-03-13T18:26:51.430Z,96773.06
2023-03-13T18:29:29.143Z,96766.92
2023-03-13T18:32:00.943Z,96764.38
2023-03-13T18:34:29.571Z,96748.30
2023-03-13T18:37:03.848Z,96749.48
2023-03-13T18:39:33.051Z,96743.82
2023-03-13T18:42:02.043Z,96740.19
2023-03-13T18:44:30.092Z,96737.15
2023-03-13T18:47:01.548Z,96727.86
2023-03-13T18:49:29.442Z,96728.10
2023-03-13T18:51:57.703Z,96720.45
2023-03-13T18:54:29.080Z,96719.80
2023-03-13T18:57:01.142Z,96723.59
2023-03-13T18:59:29.887Z,96726.30
2023-03-13T19:01:57.780Z,96728.85
2023-03-13T19:04:25.899Z,96722.60
2023-03-13T19:06:54.273Z,96721.94
2023-03-13T19:12:11.520Z,96720.90
2023-03-13T19:14:39.578Z,96712.44
2023-03-13T19:17:24.174Z,96714.02
2023-03-13T19:19:57.086Z,96714.92
2023-03-13T19:22:26.369Z,96712.86
2023-03-13T19:24:54.534Z,96708.27
2023-03-13T19:27:22.492Z,96698.06
2023-03-13T19:29:50.536Z,96690.38
2023-03-13T19:32:19.218Z,96696.06
2023-03-13T19:34:47.258Z,96692.58
2023-03-13T19:37:16.281Z,96692.13
2023-03-13T19:39:44.716Z,96688.71
2023-03-13T19:42:12.698Z,96690.66
2023-03-13T19:44:41.421Z,96692.29
2023-03-13T19:47:14.758Z,96694.77
2023-03-13T19:49:42.799Z,96701.84
2023-03-13T19:52:11.152Z,96707.02
2023-03-13T19:54:39.369Z,96711.97
2023-03-13T19:57:10.330Z,96705.77
2023-03-13T19:59:40.199Z,96691.98
2023-03-13T20:02:09.824Z,96689.04
2023-03-13T20:04:38.034Z,96683.63
2023-03-13T20:07:06.126Z,96691.58
2023-03-13T20:09:35.586Z,96685.05
2023-03-13T20:12:04.949Z,96689.40
2023-03-13T20:14:33.238Z,96681.86
2023-03-13T20:17:01.097Z,96690.13
2023-03-13T20:19:29.760Z,96688.70
2023-03-13T20:22:03.557Z,96684.55
2023-03-13T20:24:33.663Z,96684.95
2023-03-13T20:27:02.671Z,96683.85
2023-03-13T20:29:30.957Z,96681.29
2023-03-13T20:32:01.251Z,96688.25
2023-03-13T20:34:29.240Z,96684.01
2023-03-13T20:36:59.154Z,96676.58
2023-03-13T20:39:28.264Z,96668.68
2023-03-13T20:41:56.424Z,96664.83
2023-03-13T20:44:24.790Z,96666.14
2023-03-13T20:46:53.032Z,96659.20
2023-03-13T20:49:21.116Z,96649.67
2023-03-13T20:51:49.214Z,96646.52
2023-03-13T20:54:17.381Z,96644.84
2023-03-13T20:56:45.449Z,96635.65
2023-03-13T20:59:13.392Z,96632.88
2023-03-13T21:01:41.816Z,96626.38
2023-03-13T21:04:09.756Z,96621.86
2023-03-13T21:06:37.927Z,96627.14
2023-03-13T21:09:05.852Z,96624.27
2023-03-13T21:11:33.860Z,96621.59
2023-03-13T21:14:01.924Z,96614.83
2023-03-13T21:16:29.880Z,96613.30
2023-03-13T21:18:57.760Z,96607.10
2023-03-13T21:21:25.689Z,96600.61
2023-03-13T21:23:53.637Z,96597.30
2023-03-13T21:26:21.851Z,96594.02
2023-03-13T21:28:49.824Z,96589.96
2023-03-13T21:31:19.442Z,96590.08
2023-03-13T21:33:48.678Z,96588.98
2023-03-13T21:36:20.836Z,96587.36
2023-03-13T21:38:52.250Z,96588.57
2023-03-13T21:41:22.123Z,96585.69
2023-03-13T21:43:50.166Z,96586.36
2023-03-13T21:46:29.669Z,96584.13
2023-03-13T21:48:57.920Z,96594.34
2023-03-13T21:51:27.869Z,96589.48
2023-03-13T21:54:04.992Z,96579.17
2023-03-13T21:56:41.291Z,96576.98
2023-03-13T21:59:19.003Z,96571.12
2023-03-13T22:01:51.307Z,96566.70
2023-03-13T22:04:27.860Z,96561.20
2023-03-13T22:06:57.888Z,96561.16
2023-03-13T22:09:30.541Z,96566.75
2023-03-13T22:12:03.419Z,96568.05
2023-03-13T22:14:33.792Z,96563.29
2023-03-13T22:17:02.476Z,96566.23
2023-03-13T22:19:31.189Z,96563.82
2023-03-13T22:22:02.386Z,96559.98
2023-03-13T22:24:30.238Z,96561.02
2023-03-13T22:27:01.023Z,96551.83
2023-03-13T22:29:38.727Z,96545.50
2023-03-13T22:32:07.627Z,96545.23
2023-03-13T22:34:35.815Z,96550.73
2023-03-13T22:37:03.773Z,96552.94
2023-03-13T22:39:31.701Z,96547.73
2023-03-13T22:41:59.567Z,96543.80
2023-03-13T22:44:27.538Z,96536.77
2023-03-13T22:46:55.427Z,96526.34
2023-03-13T22:49:23.716Z,96521.14
2023-03-13T22:51:51.595Z,96518.96
2023-03-13T22:54:19.484Z,96521.27
2023-03-13T22:56:47.877Z,96520.44
2023-03-13T22:59:15.742Z,96515.16
2023-03-13T23:01:43.624Z,96506.09
2023-03-13T23:04:11.782Z,96492.95
2023-03-13T23:06:39.959Z,96485.50
2023-03-13T23:09:08.214Z,96485.73
2023-03-13T23:11:36.348Z,96488.64
2023-03-13T23:14:04.330Z,96482.94
2023-03-13T23:16:32.333Z,96487.69
2023-03-13T23:19:02.346Z,96485.02
2023-03-13T23:21:30.272Z,96483.59
2023-03-13T23:23:58.202Z,96481.52
2023-03-13T23:26:26.511Z,96478.38
2023-03-13T23:28:54.327Z,96470.95
2023-03-13T23:31:22.655Z,96466.61
2023-03-13T23:33:50.546Z,96457.64
2023-03-13T23:36:19.041Z,96448.66
2023-03-13T23:38:52.073Z,96448.02
2023-03-13T23:41:20.937Z,96447.86
2023-03-13T23:45:06.217Z,96452.16
2023-03-13T23:47:34.121Z,96454.98
2023-03-13T23:50:02.568Z,96456.30
2023-03-13T23:52:30.481Z,96445.95
2023-03-13T23:54:58.403Z,96448.48
2023-03-13T23:57:26.275Z,96447.27
2023-03-13T23:59:54.529Z,96443.77
